Time;durP1;ratioP1;P1;durP2;ratioP2;P2;SDS_P1;SDS_P2;PMS_P1;PMS_P2;Temp;Humidity;BMP_temperature;BMP_pressure;BME280_temperature;BME280_humidity;BME280_pressure;Samples;Min_cycle;Max_cycle;Signal;HPM_P1;HPM_P2
2022/05/04 00:00:12;;;;;;;11.52;8.25;;;11.10;68.30;;;;;;4997207;28;20022;-83
2022/05/04 00:02:39;;;;;;;10.40;7.82;;;11.10;68.10;;;;;;4979732;28;20027;-83
2022/05/04 00:05:05;;;;;;;10.30;7.25;;;11.20;67.60;;;;;;4979595;28;20027;-82
2022/05/04 00:07:31;;;;;;;9.48;7.13;;;11.20;67.30;;;;;;4979726;28;20037;-82
2022/05/04 00:09:57;;;;;;;12.45;7.57;;;11.20;66.80;;;;;;4979287;28;20113;-84
2022/05/04 00:12:24;;;;;;;8.95;6.80;;;11.20;67.00;;;;;;4995801;28;20030;-83
2022/05/04 00:14:49;;;;;;;9.63;7.32;;;11.20;67.30;;;;;;4979619;28;20030;-84
2022/05/04 00:17:15;;;;;;;9.00;6.78;;;11.20;67.70;;;;;;4979565;28;20037;-84
2022/05/04 00:19:40;;;;;;;9.25;6.93;;;11.20;67.00;;;;;;4997048;28;20027;-84
2022/05/04 00:22:06;;;;;;;8.80;7.47;;;11.20;66.60;;;;;;4995874;28;20534;-84
2022/05/04 00:24:32;;;;;;;10.20;7.93;;;11.30;66.90;;;;;;4979516;28;20507;-84
2022/05/04 00:26:57;;;;;;;7.72;6.95;;;11.30;67.00;;;;;;4996753;28;20493;-84
2022/05/04 00:29:23;;;;;;;10.57;7.82;;;11.30;67.80;;;;;;4995663;28;20038;-84
2022/05/04 00:31:48;;;;;;;9.13;7.85;;;11.20;68.60;;;;;;4996837;28;20034;-84
2022/05/04 00:34:14;;;;;;;11.18;7.35;;;11.20;68.80;;;;;;4996811;28;20029;-83
2022/05/04 00:36:39;;;;;;;10.50;7.20;;;11.10;68.70;;;;;;4996603;28;20050;-84
2022/05/04 00:39:05;;;;;;;11.30;7.78;;;11.10;68.70;;;;;;4979053;28;20419;-82
2022/05/04 00:41:30;;;;;;;9.57;6.60;;;11.10;68.50;;;;;;4996565;28;20022;-83
2022/05/04 00:43:56;;;;;;;9.05;7.55;;;11.00;68.70;;;;;;4995319;28;20125;-83
2022/05/04 00:46:22;;;;;;;10.77;7.20;;;11.10;68.80;;;;;;4996540;28;20030;-83
2022/05/04 00:48:48;;;;;;;9.60;6.97;;;11.10;68.70;;;;;;4978875;28;20035;-84
2022/05/04 00:51:14;;;;;;;10.48;7.40;;;11.00;69.00;;;;;;4978917;28;20041;-83
2022/05/04 00:53:41;;;;;;;8.93;7.25;;;11.10;68.00;;;;;;4978873;28;20053;-83
2022/05/04 00:56:08;;;;;;;9.75;7.10;;;11.10;68.40;;;;;;4978894;28;20022;-84
2022/05/04 01:01:21;;;;;;;8.98;6.63;;;11.10;67.50;;;;;;4996293;28;20049;-84
2022/05/04 01:03:46;;;;;;;9.20;6.43;;;11.20;68.10;;;;;;4996233;28;20030;-83
2022/05/04 01:06:12;;;;;;;6.75;6.00;;;11.20;68.10;;;;;;4978546;28;20027;-83
2022/05/04 01:08:38;;;;;;;10.13;7.18;;;11.20;68.10;;;;;;4996013;28;20443;-83
2022/05/04 01:11:04;;;;;;;9.25;7.07;;;11.20;67.10;;;;;;4994524;28;20088;-83
2022/05/04 01:13:30;;;;;;;9.10;6.28;;;11.30;67.30;;;;;;4978540;28;20403;-84
2022/05/04 01:15:56;;;;;;;7.28;5.97;;;11.30;66.40;;;;;;4978418;28;20023;-82
2022/05/04 01:18:22;;;;;;;7.82;6.05;;;11.40;65.60;;;;;;4978405;28;20045;-83
2022/05/04 01:20:47;;;;;;;8.05;5.95;;;11.40;65.90;;;;;;4995913;28;20076;-83
2022/05/04 01:23:13;;;;;;;8.23;6.20;;;11.50;66.60;;;;;;4978258;28;20558;-83
2022/05/04 01:25:39;;;;;;;7.55;6.20;;;11.40;67.30;;;;;;4978173;28;20035;-82
2022/05/04 01:28:05;;;;;;;9.35;7.03;;;11.40;69.90;;;;;;4995740;28;20057;-83
2022/05/04 01:30:32;;;;;;;9.23;7.13;;;11.40;70.60;;;;;;4994452;28;20030;-82
2022/05/04 01:32:59;;;;;;;11.15;7.75;;;11.30;71.60;;;;;;4978140;28;20037;-82
2022/05/04 01:35:24;;;;;;;9.85;6.88;;;11.20;72.60;;;;;;4995632;28;20027;-83
2022/05/04 01:37:50;;;;;;;9.57;6.95;;;11.20;72.70;;;;;;4995640;28;20029;-82
2022/05/04 01:40:15;;;;;;;8.27;6.88;;;11.00;76.00;;;;;;4995610;28;20039;-82
2022/05/04 01:42:41;;;;;;;12.45;7.07;;;10.90;77.40;;;;;;4995637;28;20100;-83
2022/05/04 01:45:09;;;;;;;10.40;6.43;;;10.80;78.40;;;;;;4977957;28;20030;-83
2022/05/04 01:47:35;;;;;;;7.85;6.32;;;10.70;79.70;;;;;;4978086;28;20019;-82
2022/05/04 01:50:02;;;;;;;9.02;6.22;;;10.70;79.40;;;;;;4976252;28;20034;-83
2022/05/04 01:52:27;;;;;;;7.78;6.75;;;10.70;78.30;;;;;;4981740;28;20022;-82
2022/05/04 01:54:53;;;;;;;11.63;7.18;;;10.70;78.20;;;;;;4997148;28;20503;-83
2022/05/04 01:57:22;;;;;;;14.05;6.78;;;10.70;77.80;;;;;;5013444;28;20025;-82
2022/05/04 01:59:47;;;;;;;10.95;6.20;;;10.70;79.50;;;;;;4997011;28;20530;-83
2022/05/04 02:02:13;;;;;;;7.80;6.28;;;10.60;80.80;;;;;;4997088;28;20026;-82
2022/05/04 02:04:40;;;;;;;8.65;6.85;;;10.60;82.50;;;;;;4996981;28;20041;-82
2022/05/04 02:07:10;;;;;;;11.63;6.95;;;10.50;83.60;;;;;;5014524;28;20029;-83
2022/05/04 02:09:36;;;;;;;9.88;7.78;;;10.50;84.50;;;;;;5013151;28;20385;-83
2022/05/04 02:12:04;;;;;;;10.68;7.65;;;10.40;85.10;;;;;;4996864;28;20445;-83
2022/05/04 02:14:33;;;;;;;8.90;6.78;;;10.40;87.70;;;;;;4996202;28;20427;-83
2022/05/04 02:17:02;;;;;;;10.43;7.35;;;10.30;88.20;;;;;;5013174;28;20029;-82
2022/05/04 02:19:27;;;;;;;10.35;7.50;;;10.30;88.90;;;;;;4996762;28;20018;-83
2022/05/04 02:21:53;;;;;;;10.80;6.55;;;10.20;89.10;;;;;;4996581;28;20029;-82
2022/05/04 02:24:19;;;;;;;11.40;7.28;;;10.20;88.70;;;;;;4996594;28;20523;-82
2022/05/04 02:26:44;;;;;;;11.40;7.40;;;10.20;89.10;;;;;;5014224;28;20030;-82
2022/05/04 02:29:10;;;;;;;10.23;8.05;;;10.20;89.40;;;;;;5014194;28;20038;-82
2022/05/04 02:31:35;;;;;;;10.48;7.93;;;10.20;91.60;;;;;;5012841;28;20430;-82
2022/05/04 02:34:01;;;;;;;10.38;8.15;;;10.20;91.80;;;;;;5012695;28;20029;-83
2022/05/04 02:39:10;;;;;;;11.45;7.75;;;10.20;87.50;;;;;;5014274;28;20084;-83
2022/05/04 02:41:36;;;;;;;10.73;7.82;;;10.20;87.30;;;;;;5012704;28;20030;-82
2022/05/04 02:44:01;;;;;;;10.30;7.47;;;10.20;86.00;;;;;;5012492;28;20018;-83
2022/05/04 02:46:29;;;;;;;14.68;7.90;;;10.20;85.40;;;;;;5013982;28;20026;-84
2022/05/04 02:48:55;;;;;;;13.25;9.07;;;10.20;86.40;;;;;;4996208;28;20038;-83
2022/05/04 02:51:20;;;;;;;12.50;8.13;;;10.20;87.10;;;;;;4996191;28;20025;-84
2022/05/04 02:53:46;;;;;;;15.45;10.00;;;10.20;87.10;;;;;;4995904;28;20022;-83
2022/05/04 02:56:15;;;;;;;12.27;9.13;;;10.20;89.10;;;;;;5013622;28;20030;-84
2022/05/04 02:58:45;;;;;;;12.65;9.77;;;10.20;92.20;;;;;;4996013;28;20076;-84
2022/05/04 03:04:03;;;;;;;9.75;8.23;;;10.20;94.00;;;;;;5013741;28;20388;-82
2022/05/04 03:06:29;;;;;;;11.65;8.70;;;10.30;94.10;;;;;;5013352;28;20096;-83
2022/05/04 03:08:55;;;;;;;10.13;8.85;;;10.30;92.50;;;;;;5013400;28;20044;-83
2022/05/04 03:14:07;;;;;;;11.02;9.15;;;10.30;95.40;;;;;;5013739;28;20168;-83
2022/05/04 03:16:35;;;;;;;10.45;8.20;;;10.30;95.00;;;;;;5012106;28;20053;-83
2022/05/04 03:19:02;;;;;;;14.30;9.05;;;10.20;93.90;;;;;;5013401;28;20049;-83
2022/05/04 03:21:28;;;;;;;13.30;9.02;;;10.20;95.70;;;;;;4995724;28;20093;-83
2022/05/04 03:23:54;;;;;;;10.45;8.27;;;10.10;95.30;;;;;;4995413;28;20058;-83
2022/05/04 03:26:19;;;;;;;10.57;8.38;;;10.10;92.90;;;;;;4994621;28;20021;-83
2022/05/04 03:28:45;;;;;;;9.75;8.75;;;10.10;91.30;;;;;;4995586;28;20030;-83
2022/05/04 03:31:11;;;;;;;9.13;8.05;;;10.10;90.90;;;;;;4995556;28;20444;-82
2022/05/04 03:33:37;;;;;;;10.27;8.35;;;10.10;91.20;;;;;;5013190;28;20066;-82
2022/05/04 03:36:03;;;;;;;10.18;7.88;;;10.20;91.40;;;;;;4995377;28;20025;-83
2022/05/04 03:38:28;;;;;;;9.95;8.02;;;10.20;90.20;;;;;;5013019;28;20052;-84
2022/05/04 03:40:54;;;;;;;31.23;16.55;;;10.20;89.90;;;;;;5011844;28;20022;-83
2022/05/04 03:43:20;;;;;;;19.85;12.70;;;10.20;91.70;;;;;;4995440;28;20029;-82
2022/05/04 03:45:45;;;;;;;15.45;10.80;;;10.20;94.30;;;;;;4995236;28;20026;-83
2022/05/04 03:48:11;;;;;;;14.50;11.43;;;10.30;97.60;;;;;;5012892;28;20141;-83
2022/05/04 03:50:36;;;;;;;14.68;10.43;;;10.30;99.90;;;;;;4995324;28;20045;-82
2022/05/04 03:53:02;;;;;;;10.20;8.73;;;10.20;99.90;;;;;;5013040;28;20465;-83
2022/05/04 03:55:27;;;;;;;15.68;9.48;;;10.20;97.90;;;;;;4995509;28;20032;-82
2022/05/04 03:57:53;;;;;;;11.68;9.93;;;10.10;93.30;;;;;;5013176;28;20022;-82
2022/05/04 04:00:19;;;;;;;10.85;8.88;;;10.20;87.20;;;;;;5011759;28;20061;-83
2022/05/04 04:02:45;;;;;;;11.50;8.27;;;10.20;84.30;;;;;;5013240;28;20026;-83
2022/05/04 04:05:10;;;;;;;8.35;7.43;;;10.20;82.70;;;;;;4995570;28;20033;-83
2022/05/04 04:07:36;;;;;;;10.35;8.27;;;10.30;83.80;;;;;;4995270;28;20049;-83
2022/05/04 04:10:02;;;;;;;8.15;7.30;;;10.20;87.30;;;;;;4995170;28;20108;-83
2022/05/04 04:12:28;;;;;;;9.40;7.57;;;10.20;89.20;;;;;;5013111;28;20390;-83
2022/05/04 04:14:53;;;;;;;10.60;7.32;;;10.20;87.30;;;;;;4995496;28;20034;-83
2022/05/04 04:17:19;;;;;;;9.38;7.60;;;10.10;87.00;;;;;;4995311;28;20467;-83
2022/05/04 04:21:50;;;;;;;8.95;7.57;;;10.10;87.30;;;;;;4995223;28;20483;-83
2022/05/04 04:22:30;;;;;;;10.35;7.63;;;10.10;88.40;;;;;;5012874;28;20022;-83
2022/05/04 04:24:56;;;;;;;10.88;8.82;;;10.10;91.50;;;;;;5011683;28;20052;-83
2022/05/04 04:27:21;;;;;;;10.48;8.77;;;10.00;91.90;;;;;;4995347;28;20014;-83
2022/05/04 04:29:47;;;;;;;14.38;10.38;;;10.00;95.80;;;;;;4995088;28;20092;-83
2022/05/04 04:32:12;;;;;;;11.88;9.00;;;9.90;96.10;;;;;;4995236;28;20024;-81
2022/05/04 04:34:38;;;;;;;12.82;9.43;;;9.90;96.80;;;;;;5011488;28;20052;-82
2022/05/04 04:37:04;;;;;;;12.45;8.82;;;9.90;95.60;;;;;;4996907;28;20022;-82
2022/05/04 04:39:29;;;;;;;12.50;9.75;;;9.90;94.00;;;;;;5014964;28;20135;-83
2022/05/04 04:41:55;;;;;;;11.85;10.27;;;10.10;91.30;;;;;;5015082;28;20113;-83
2022/05/04 04:44:20;;;;;;;11.23;9.40;;;10.20;90.80;;;;;;5016298;28;20026;-83
2022/05/04 04:46:46;;;;;;;12.35;10.18;;;10.30;88.50;;;;;;4998702;28;20038;-82
2022/05/04 04:49:11;;;;;;;14.00;12.07;;;10.50;85.00;;;;;;4998686;28;20156;-82
2022/05/04 04:51:37;;;;;;;14.45;11.50;;;10.70;85.80;;;;;;5014991;28;20388;-82
2022/05/04 04:54:02;;;;;;;15.48;11.02;;;10.80;84.40;;;;;;5016223;28;20391;-82
2022/05/04 04:56:28;;;;;;;12.10;10.50;;;10.90;83.30;;;;;;4998600;28;20029;-83
2022/05/04 04:58:53;;;;;;;9.13;8.23;;;11.00;85.60;;;;;;5016232;28;20033;-82
2022/05/04 05:01:19;;;;;;;8.77;7.68;;;11.10;85.00;;;;;;5016054;28;20026;-83
2022/05/04 05:03:45;;;;;;;11.63;7.22;;;11.20;83.50;;;;;;4998386;28;20026;-83
2022/05/04 05:06:12;;;;;;;10.07;8.25;;;11.40;84.70;;;;;;4998145;28;20018;-82
2022/05/04 05:08:41;;;;;;;9.40;8.23;;;11.50;84.70;;;;;;5015706;28;20104;-84
2022/05/04 05:11:06;;;;;;;16.05;6.93;;;11.70;83.30;;;;;;4993921;28;20517;-78
2022/05/04 05:13:32;;;;;;;8.93;6.03;;;11.80;78.70;;;;;;5002077;28;20026;-79
2022/05/04 05:16:06;;;;;;;10.15;6.88;;;12.00;74.20;;;;;;5013327;28;20034;-79
2022/05/04 05:18:32;;;;;;;7.38;6.43;;;12.20;74.80;;;;;;5013517;28;20030;-75
2022/05/04 05:20:58;;;;;;;6.90;6.20;;;12.30;73.60;;;;;;5014707;28;20394;-75
2022/05/04 05:23:24;;;;;;;8.88;6.63;;;12.50;73.00;;;;;;5014598;28;20022;-78
2022/05/04 05:25:50;;;;;;;10.00;7.00;;;12.70;69.90;;;;;;5015258;28;20034;-77
2022/05/04 05:28:15;;;;;;;6.95;5.88;;;12.80;70.20;;;;;;4997331;28;20033;-76
2022/05/04 05:30:42;;;;;;;13.85;6.35;;;12.70;68.90;;;;;;5013342;28;20030;-77
2022/05/04 05:33:08;;;;;;;9.02;5.78;;;12.70;69.60;;;;;;5012173;28;20387;-80
2022/05/04 05:35:34;;;;;;;10.18;6.28;;;12.70;69.90;;;;;;5014116;28;20030;-81
2022/05/04 05:37:59;;;;;;;7.50;5.47;;;12.60;69.10;;;;;;5013487;28;20464;-77
2022/05/04 05:40:26;;;;;;;7.15;5.90;;;12.60;69.50;;;;;;5013894;28;20034;-77
2022/05/04 05:42:52;;;;;;;7.25;6.00;;;12.60;71.00;;;;;;5008425;28;20034;-76
2022/05/04 05:45:17;;;;;;;9.07;5.95;;;12.60;70.70;;;;;;4995127;28;20019;-76
2022/05/04 05:47:43;;;;;;;7.72;5.95;;;12.70;71.40;;;;;;4991495;28;20042;-77
2022/05/04 05:50:10;;;;;;;8.30;6.18;;;12.80;72.20;;;;;;4989367;28;20034;-77
2022/05/04 05:52:35;;;;;;;8.00;5.97;;;12.80;70.90;;;;;;4994422;28;20027;-77
2022/05/04 05:55:01;;;;;;;6.35;5.72;;;12.90;70.60;;;;;;4994717;28;20030;-80
2022/05/04 05:57:27;;;;;;;7.53;5.95;;;13.00;69.80;;;;;;5010378;28;20033;-77
2022/05/04 05:59:52;;;;;;;8.65;6.70;;;13.20;69.90;;;;;;5014201;28;20135;-77
2022/05/04 06:02:19;;;;;;;8.00;5.22;;;13.20;69.10;;;;;;5013619;28;20549;-78
2022/05/04 06:04:45;;;;;;;6.97;5.55;;;13.30;68.60;;;;;;5013963;28;20075;-77
2022/05/04 06:07:11;;;;;;;6.68;5.60;;;13.40;69.00;;;;;;5011539;28;20446;-79
2022/05/04 06:09:36;;;;;;;7.68;6.32;;;13.50;70.10;;;;;;4995135;28;20026;-81
2022/05/04 06:12:02;;;;;;;9.00;6.00;;;13.40;69.30;;;;;;4995247;28;20054;-78
2022/05/04 06:14:28;;;;;;;7.68;5.65;;;13.50;68.70;;;;;;4992994;28;20026;-78
2022/05/04 06:16:54;;;;;;;10.20;5.85;;;13.70;68.90;;;;;;4992094;28;20018;-79
2022/05/04 06:19:19;;;;;;;7.05;5.18;;;14.00;68.00;;;;;;4993394;28;20031;-78
2022/05/04 06:21:45;;;;;;;6.45;5.40;;;14.10;65.00;;;;;;4977244;28;20026;-78
2022/05/04 06:24:10;;;;;;;7.88;5.50;;;14.20;63.70;;;;;;4977800;28;20571;-78
2022/05/04 06:26:36;;;;;;;6.82;5.40;;;14.40;63.50;;;;;;4995163;28;20357;-80
2022/05/04 06:29:02;;;;;;;7.05;5.55;;;14.60;64.10;;;;;;4977544;28;20496;-79
2022/05/04 06:34:12;;;;;;;6.22;4.95;;;14.80;63.80;;;;;;4993229;28;20077;-79
2022/05/04 06:36:42;;;;;;;6.32;5.57;;;14.90;63.80;;;;;;4975192;28;20022;-81
2022/05/04 06:39:08;;;;;;;17.40;6.85;;;15.00;64.20;;;;;;4992600;28;20092;-80
2022/05/04 06:41:38;;;;;;;6.38;5.78;;;15.10;64.10;;;;;;4992876;28;20018;-79
2022/05/04 06:44:04;;;;;;;6.57;5.47;;;15.20;62.30;;;;;;4992976;28;20030;-79
2022/05/04 06:46:30;;;;;;;6.75;5.50;;;15.40;62.90;;;;;;4975671;28;20109;-80
2022/05/04 06:48:56;;;;;;;9.30;6.03;;;15.70;63.80;;;;;;4994656;28;20117;-80
2022/05/04 06:51:21;;;;;;;6.43;5.60;;;15.80;61.60;;;;;;4977111;28;20026;-79
2022/05/04 06:53:47;;;;;;;8.30;5.47;;;15.80;60.10;;;;;;4977181;28;20068;-80
2022/05/04 06:56:12;;;;;;;5.88;5.30;;;15.90;58.90;;;;;;4977083;28;20480;-79
2022/05/04 06:58:38;;;;;;;5.80;5.00;;;16.00;58.70;;;;;;4994395;28;20031;-79
2022/05/04 07:01:07;;;;;;;13.70;6.35;;;16.20;59.00;;;;;;4976811;28;20037;-79
2022/05/04 07:03:33;;;;;;;7.35;5.78;;;16.40;57.90;;;;;;4976630;28;20045;-80
2022/05/04 07:05:59;;;;;;;7.72;5.60;;;16.40;58.10;;;;;;4976925;28;20484;-79
2022/05/04 07:08:25;;;;;;;9.52;6.47;;;16.50;57.60;;;;;;4994497;28;20026;-80
2022/05/04 07:10:51;;;;;;;7.25;5.93;;;16.40;57.20;;;;;;4994045;28;20445;-79
2022/05/04 07:13:17;;;;;;;8.90;6.18;;;16.40;57.90;;;;;;4976702;28;20034;-80
2022/05/04 07:15:43;;;;;;;6.50;5.30;;;16.60;58.50;;;;;;4994181;28;20372;-80
2022/05/04 07:18:09;;;;;;;9.00;6.00;;;16.90;58.40;;;;;;4994204;28;20452;-80
2022/05/04 07:20:34;;;;;;;6.82;5.80;;;16.90;57.30;;;;;;4994107;28;20058;-81
2022/05/04 07:23:00;;;;;;;9.85;6.18;;;17.00;56.40;;;;;;4994082;28;20027;-80
2022/05/04 07:25:25;;;;;;;7.82;6.05;;;17.20;56.50;;;;;;4976661;28;20471;-80
2022/05/04 07:27:51;;;;;;;8.80;6.88;;;17.40;57.00;;;;;;4994272;28;20022;-80
2022/05/04 07:30:17;;;;;;;5.97;5.25;;;17.20;54.80;;;;;;4992766;28;20492;-80
2022/05/04 07:32:42;;;;;;;7.07;6.03;;;17.10;55.40;;;;;;4992960;28;20021;-81
2022/05/04 07:35:08;;;;;;;9.60;5.90;;;17.10;56.40;;;;;;4976608;28;20114;-80
2022/05/04 07:37:34;;;;;;;7.43;5.85;;;17.20;55.80;;;;;;4976534;28;20019;-81
2022/05/04 07:42:44;;;;;;;10.05;5.97;;;17.70;54.80;;;;;;4994148;28;20045;-81
2022/05/04 07:45:12;;;;;;;6.70;5.90;;;17.80;54.70;;;;;;4976222;28;20026;-80
2022/05/04 07:47:39;;;;;;;7.55;6.03;;;17.70;53.40;;;;;;4976330;28;20019;-80
2022/05/04 07:50:07;;;;;;;7.47;6.50;;;17.60;52.80;;;;;;4993324;28;20039;-81
2022/05/04 07:52:33;;;;;;;6.60;5.68;;;17.70;52.60;;;;;;4976263;28;20038;-80
2022/05/04 07:54:59;;;;;;;7.30;6.47;;;17.80;52.60;;;;;;4993652;28;20096;-80
2022/05/04 07:57:25;;;;;;;5.57;5.10;;;17.90;52.60;;;;;;4993784;28;20423;-80
2022/05/04 08:05:24;;;;;;;5.40;4.90;;;18.30;49.90;;;;;;4993888;28;20038;-80
2022/05/04 08:07:50;;;;;;;7.40;6.35;;;18.30;50.50;;;;;;4976191;28;20434;-80
2022/05/04 08:10:16;;;;;;;6.50;5.75;;;18.30;51.10;;;;;;4991990;28;20054;-81
2022/05/04 08:12:42;;;;;;;6.00;4.47;;;18.30;50.00;;;;;;4996291;28;20030;-81
2022/05/04 08:15:08;;;;;;;9.57;6.13;;;18.40;50.90;;;;;;4997543;28;20036;-80
2022/05/04 08:17:34;;;;;;;9.32;6.57;;;18.40;48.40;;;;;;4997419;28;20030;-80
2022/05/04 08:19:59;;;;;;;6.00;5.40;;;18.30;49.30;;;;;;4997148;28;20384;-81
2022/05/04 08:22:27;;;;;;;8.30;5.25;;;18.40;49.10;;;;;;4997312;28;20076;-80
2022/05/04 08:24:52;;;;;;;6.05;5.45;;;18.20;47.30;;;;;;4997152;28;20065;-81
2022/05/04 08:27:19;;;;;;;8.60;5.90;;;18.10;46.60;;;;;;4997429;28;20026;-80
2022/05/04 08:29:45;;;;;;;7.78;5.28;;;18.00;47.20;;;;;;4979657;28;20407;-80
2022/05/04 08:32:11;;;;;;;6.13;4.78;;;18.10;48.20;;;;;;4979669;28;20042;-80
2022/05/04 08:34:37;;;;;;;5.97;5.38;;;18.20;47.60;;;;;;4996813;28;20026;-80
2022/05/04 08:37:03;;;;;;;18.63;6.78;;;18.40;46.80;;;;;;4996124;28;20068;-82
2022/05/04 08:39:28;;;;;;;8.02;5.20;;;18.50;46.70;;;;;;4997031;28;20022;-81
2022/05/04 08:41:54;;;;;;;6.70;5.22;;;18.60;45.90;;;;;;4979506;28;20022;-80
2022/05/04 08:44:19;;;;;;;8.05;5.03;;;18.60;45.60;;;;;;4996938;28;20031;-81
2022/05/04 08:46:45;;;;;;;9.68;5.97;;;18.80;47.00;;;;;;4979473;28;20472;-81
2022/05/04 08:49:12;;;;;;;6.40;4.47;;;18.90;46.50;;;;;;4979472;28;20042;-81
2022/05/04 08:51:39;;;;;;;5.97;4.93;;;19.20;47.00;;;;;;4979464;28;20034;-80
2022/05/04 08:54:06;;;;;;;6.25;5.65;;;19.10;45.70;;;;;;4996968;28;20473;-80
2022/05/04 08:56:33;;;;;;;6.55;5.95;;;19.10;45.40;;;;;;4979305;28;20031;-81
2022/05/04 08:59:01;;;;;;;11.98;5.60;;;19.10;45.20;;;;;;4995441;28;20384;-82
2022/05/04 09:01:27;;;;;;;6.93;5.28;;;19.10;45.30;;;;;;4995820;28;20053;-80
2022/05/04 09:03:53;;;;;;;8.55;6.00;;;19.10;45.60;;;;;;4996498;28;20464;-81
2022/05/04 09:06:29;;;;;;;7.05;5.85;;;19.00;44.90;;;;;;4996634;28;20034;-82
2022/05/04 09:09:03;;;;;;;12.25;6.00;;;19.10;45.80;;;;;;4996683;28;20568;-80
2022/05/04 09:11:29;;;;;;;6.30;5.68;;;19.20;44.70;;;;;;4996768;28;20039;-81
2022/05/04 09:13:54;;;;;;;7.82;6.40;;;19.30;44.30;;;;;;4996655;28;20101;-82
2022/05/04 09:16:33;;;;;;;6.75;5.30;;;19.40;45.50;;;;;;4978983;28;20030;-81
2022/05/04 09:19:09;;;;;;;5.57;4.72;;;19.10;46.00;;;;;;4996474;28;20460;-81
2022/05/04 09:21:35;;;;;;;6.45;5.00;;;18.80;45.00;;;;;;4978986;28;20447;-80
2022/05/04 09:24:01;;;;;;;7.40;5.75;;;18.10;45.10;;;;;;4977553;28;20392;-81
2022/05/04 09:26:27;;;;;;;10.70;5.50;;;17.80;46.10;;;;;;4996239;28;20034;-80
2022/05/04 09:29:04;;;;;;;8.95;5.35;;;17.60;47.20;;;;;;4995978;28;20374;-82
2022/05/04 09:31:33;;;;;;;6.68;5.43;;;17.50;48.00;;;;;;4996278;28;20376;-80
2022/05/04 09:34:01;;;;;;;6.80;5.07;;;17.40;48.30;;;;;;4996251;28;20465;-82
2022/05/04 09:36:31;;;;;;;7.93;5.65;;;17.40;48.10;;;;;;4996019;28;20076;-82
2022/05/04 09:47:18;;;;;;;12.10;5.47;;;17.20;48.80;;;;;;4996459;28;20064;-80
2022/05/04 09:49:47;;;;;;;10.52;5.50;;;17.30;49.10;;;;;;4995652;28;20110;-80
2022/05/04 09:52:14;;;;;;;7.95;5.57;;;17.20;49.30;;;;;;4978347;28;20026;-82
2022/05/04 09:54:39;;;;;;;8.88;5.00;;;17.20;49.20;;;;;;4978320;28;20399;-80
2022/05/04 09:57:06;;;;;;;7.60;4.72;;;17.10;48.90;;;;;;4995886;28;20105;-81
2022/05/04 09:59:38;;;;;;;7.47;5.57;;;17.10;49.30;;;;;;4994291;28;20030;-82
2022/05/04 10:02:09;;;;;;;9.00;6.25;;;17.00;49.30;;;;;;4994379;28;20033;-80
2022/05/04 10:04:36;;;;;;;8.73;5.75;;;16.90;49.50;;;;;;4995653;28;20026;-82
2022/05/04 10:07:03;;;;;;;6.72;5.20;;;16.90;50.00;;;;;;4978043;28;20030;-82
2022/05/04 10:09:29;;;;;;;7.03;5.05;;;16.90;49.80;;;;;;4977913;28;20035;-80
2022/05/04 10:11:59;;;;;;;6.38;5.05;;;16.90;49.40;;;;;;4978178;28;20108;-82
2022/05/04 10:14:29;;;;;;;6.57;5.90;;;17.30;49.70;;;;;;4978039;28;20025;-82
2022/05/04 10:17:11;;;;;;;5.55;4.80;;;17.60;49.40;;;;;;4995407;28;20026;-82
2022/05/04 10:19:59;;;;;;;7.57;5.72;;;18.10;51.00;;;;;;4977909;28;20033;-79
2022/05/04 10:22:31;;;;;;;6.38;5.78;;;18.30;48.50;;;;;;4995264;28;20022;-82
2022/05/04 10:25:00;;;;;;;7.00;5.43;;;18.40;48.30;;;;;;4995197;28;20533;-80
2022/05/04 10:27:28;;;;;;;7.85;5.45;;;18.60;47.80;;;;;;4977735;28;20022;-80
2022/05/04 10:32:55;;;;;;;6.45;5.55;;;19.10;46.90;;;;;;4995567;28;20081;-80
2022/05/04 10:35:30;;;;;;;8.55;5.72;;;19.30;46.20;;;;;;4994600;28;20027;-80
2022/05/04 10:37:57;;;;;;;8.70;5.75;;;19.20;45.20;;;;;;4977366;28;20030;-80
2022/05/04 10:40:29;;;;;;;7.07;5.07;;;19.20;45.50;;;;;;4977674;28;20030;-80
2022/05/04 10:42:56;;;;;;;8.23;6.05;;;19.50;45.50;;;;;;4994923;28;20572;-82
2022/05/04 10:45:24;;;;;;;9.65;5.95;;;19.60;44.90;;;;;;4977319;28;20038;-80
2022/05/04 10:47:49;;;;;;;7.00;5.18;;;19.50;44.70;;;;;;4977449;28;20023;-82
2022/05/04 10:50:19;;;;;;;8.80;5.68;;;19.10;45.10;;;;;;4993414;28;20034;-80
2022/05/04 10:52:48;;;;;;;8.50;5.30;;;19.20;45.00;;;;;;4977377;28;20023;-83
2022/05/04 10:55:14;;;;;;;6.72;6.03;;;19.40;45.00;;;;;;4994491;28;20101;-80
2022/05/04 10:57:42;;;;;;;7.65;5.88;;;19.30;45.50;;;;;;4993398;28;20535;-81
2022/05/04 11:00:10;;;;;;;6.95;5.70;;;19.20;45.90;;;;;;4977156;28;20033;-80
2022/05/04 11:02:42;;;;;;;6.78;5.50;;;19.40;45.80;;;;;;4994626;28;20010;-82
2022/05/04 11:05:13;;;;;;;6.93;5.85;;;19.80;45.40;;;;;;4976831;28;20108;-82
2022/05/04 11:07:38;;;;;;;7.20;6.03;;;19.70;44.00;;;;;;4976752;28;20380;-80
2022/05/04 11:10:04;;;;;;;5.55;5.05;;;19.80;42.90;;;;;;4976646;28;20060;-82
2022/05/04 11:12:30;;;;;;;5.97;5.47;;;20.20;43.50;;;;;;4994469;28;20057;-80
2022/05/04 11:14:55;;;;;;;9.18;6.07;;;20.20;43.70;;;;;;4994317;28;20052;-80
2022/05/04 11:17:21;;;;;;;7.72;5.60;;;20.10;43.50;;;;;;4992838;28;20018;-81
2022/05/04 11:19:48;;;;;;;7.05;6.10;;;19.60;43.10;;;;;;4992880;28;20026;-80
2022/05/04 11:22:16;;;;;;;8.23;6.25;;;19.40;44.50;;;;;;4994223;28;20041;-81
2022/05/04 11:24:43;;;;;;;6.80;5.47;;;19.00;44.70;;;;;;4994069;28;20030;-80
2022/05/04 11:27:09;;;;;;;6.35;5.68;;;18.70;45.80;;;;;;4976288;28;20018;-83
2022/05/04 11:29:35;;;;;;;8.70;5.85;;;18.30;46.90;;;;;;4976358;28;20085;-80
2022/05/04 11:32:03;;;;;;;9.00;6.90;;;18.10;47.10;;;;;;4992764;28;20461;-83
2022/05/04 11:34:32;;;;;;;7.88;5.85;;;17.80;47.50;;;;;;4993739;28;20025;-80
2022/05/04 11:37:01;;;;;;;7.35;5.50;;;17.80;48.10;;;;;;4993773;28;20018;-80
2022/05/04 11:39:29;;;;;;;8.20;5.80;;;17.80;48.60;;;;;;4976486;28;20026;-80
2022/05/04 11:41:59;;;;;;;6.07;5.45;;;17.80;47.90;;;;;;4994048;28;20490;-83
2022/05/04 11:44:26;;;;;;;7.53;5.57;;;17.80;48.00;;;;;;4976537;28;20034;-79
2022/05/04 11:46:56;;;;;;;7.70;6.28;;;17.70;47.70;;;;;;4992983;28;20026;-78
2022/05/04 11:49:27;;;;;;;6.93;5.43;;;17.60;48.00;;;;;;4976291;28;20089;-78
2022/05/04 11:51:54;;;;;;;6.63;5.43;;;17.70;48.70;;;;;;4994059;28;20093;-79
2022/05/04 11:54:19;;;;;;;6.57;5.00;;;17.80;48.50;;;;;;4993398;28;20018;-82
2022/05/04 11:56:45;;;;;;;8.40;6.15;;;17.80;48.90;;;;;;4993291;28;20146;-79
2022/05/04 11:59:11;;;;;;;10.23;7.20;;;17.70;48.70;;;;;;4993426;28;20030;-83
2022/05/04 12:01:38;;;;;;;7.88;6.00;;;17.60;48.60;;;;;;4993013;28;20559;-82
2022/05/04 12:04:05;;;;;;;9.88;6.13;;;17.60;48.50;;;;;;4990725;28;20566;-80
2022/05/04 12:06:32;;;;;;;6.30;4.95;;;17.70;49.40;;;;;;4980085;28;20080;-83
2022/05/04 12:08:59;;;;;;;6.80;5.97;;;17.80;49.50;;;;;;4983808;28;20399;-83
2022/05/04 12:11:25;;;;;;;7.57;5.07;;;17.80;48.50;;;;;;4999633;28;20520;-82
2022/05/04 12:13:52;;;;;;;7.75;5.75;;;17.90;48.40;;;;;;4982908;28;20045;-79
2022/05/04 12:16:19;;;;;;;8.95;6.07;;;18.00;48.90;;;;;;4995232;28;20018;-82
2022/05/04 12:18:47;;;;;;;8.95;6.03;;;17.90;48.00;;;;;;4993624;28;20038;-81
2022/05/04 12:21:19;;;;;;;6.97;5.80;;;18.00;48.10;;;;;;5002024;28;20456;-82
2022/05/04 12:23:47;;;;;;;7.53;5.47;;;18.10;47.90;;;;;;4974892;28;20049;-82
2022/05/04 12:26:14;;;;;;;10.50;6.60;;;18.10;47.50;;;;;;5000981;28;20034;-82
2022/05/04 12:33:08;;;;;;;7.40;5.45;;;18.20;47.20;;;;;;4993332;28;20073;-80
2022/05/04 12:34:25;;;;;;;8.32;5.43;;;18.20;45.90;;;;;;5011100;28;20061;-80
2022/05/04 12:36:51;;;;;;;8.38;5.88;;;18.20;46.30;;;;;;5010966;28;20049;-79
2022/05/04 12:39:17;;;;;;;7.10;5.68;;;18.20;47.20;;;;;;5010715;28;20030;-85
2022/05/04 12:41:44;;;;;;;8.10;5.85;;;18.10;46.90;;;;;;4994290;28;20025;-83
2022/05/04 12:44:10;;;;;;;8.10;5.20;;;18.10;46.40;;;;;;5011658;28;20042;-80
2022/05/04 12:46:37;;;;;;;7.40;5.70;;;18.10;46.70;;;;;;5011422;28;20026;-86
2022/05/04 12:49:04;;;;;;;6.85;5.13;;;18.10;46.20;;;;;;4983231;28;20472;-86
2022/05/04 12:51:30;;;;;;;9.18;6.05;;;18.10;46.80;;;;;;4974471;28;20033;-86
2022/05/04 12:53:56;;;;;;;7.43;5.43;;;18.20;46.80;;;;;;4974609;28;20030;-80
2022/05/04 12:59:06;;;;;;;7.22;5.88;;;18.30;46.60;;;;;;5015135;28;20526;-82
2022/05/04 13:01:32;;;;;;;6.53;5.20;;;18.40;47.20;;;;;;4997524;28;20026;-83
2022/05/04 13:03:58;;;;;;;5.82;5.10;;;18.50;45.60;;;;;;5014644;28;20034;-83
2022/05/04 13:06:24;;;;;;;6.68;5.40;;;18.70;45.80;;;;;;5015011;28;20088;-83
2022/05/04 13:08:50;;;;;;;6.50;5.68;;;18.80;46.60;;;;;;5015075;28;20041;-82
2022/05/04 13:11:16;;;;;;;6.75;5.57;;;18.90;44.80;;;;;;5015003;28;20053;-85
2022/05/04 13:13:43;;;;;;;8.73;5.18;;;18.90;44.30;;;;;;5014784;28;20133;-83
2022/05/04 13:16:08;;;;;;;6.38;5.00;;;18.90;44.20;;;;;;4997808;28;20030;-84
2022/05/04 13:18:34;;;;;;;6.93;5.03;;;19.00;45.10;;;;;;5013941;28;20033;-82